Time;durP1;ratioP1;P1;durP2;ratioP2;P2;SDS_P1;SDS_P2;PMS_P1;PMS_P2;Temp;Humidity;BMP_temperature;BMP_pressure;BME280_temperature;BME280_humidity;BME280_pressure;Samples;Min_cycle;Max_cycle;Signal;HPM_P1;HPM_P2
2022/07/02 00:02:16;;;;;;;3.83;1.67;;;18.90;67.80;;;;;;5036427;28;20478;-68
2022/07/02 00:04:47;;;;;;;3.60;1.73;;;18.90;68.10;;;;;;5036190;28;20470;-68
2022/07/02 00:07:14;;;;;;;2.13;1.90;;;18.80;68.10;;;;;;5036176;28;20435;-68
2022/07/02 00:09:43;;;;;;;2.67;1.40;;;18.80;68.20;;;;;;5034030;28;20471;-68
2022/07/02 00:12:12;;;;;;;2.23;1.47;;;18.70;68.60;;;;;;5035179;28;20465;-68
2022/07/02 00:14:39;;;;;;;2.87;1.90;;;18.70;68.90;;;;;;5036446;28;20462;-67
2022/07/02 00:17:06;;;;;;;5.40;1.73;;;18.60;68.80;;;;;;5039513;28;20454;-68
2022/07/02 00:19:36;;;;;;;1.70;1.30;;;18.60;69.00;;;;;;5040124;28;20508;-68
2022/07/02 00:22:04;;;;;;;1.30;1.20;;;18.50;69.10;;;;;;5040443;28;21004;-68
2022/07/02 00:24:31;;;;;;;1.87;1.70;;;18.50;69.10;;;;;;5040797;28;20481;-67
2022/07/02 00:26:59;;;;;;;2.33;1.47;;;18.50;69.10;;;;;;5040856;28;20465;-67
2022/07/02 00:29:34;;;;;;;1.93;1.40;;;18.50;69.20;;;;;;5039935;28;20960;-68
2022/07/02 00:32:01;;;;;;;1.80;1.50;;;18.40;69.20;;;;;;5040322;28;20434;-68
2022/07/02 00:34:30;;;;;;;2.23;1.37;;;18.40;69.60;;;;;;5040687;28;20466;-68
2022/07/02 00:36:59;;;;;;;3.63;2.00;;;18.40;69.90;;;;;;5040053;28;20442;-68
2022/07/02 00:39:26;;;;;;;4.30;1.30;;;18.30;70.00;;;;;;5041079;28;20818;-68
2022/07/02 00:41:53;;;;;;;2.57;2.10;;;18.30;70.20;;;;;;5040160;28;20478;-68
2022/07/02 00:44:22;;;;;;;5.40;1.43;;;18.30;70.60;;;;;;5040238;28;20470;-68
2022/07/02 00:46:50;;;;;;;2.80;1.60;;;18.20;70.60;;;;;;5039207;28;20435;-68
2022/07/02 00:49:18;;;;;;;3.50;1.70;;;18.20;70.60;;;;;;5039025;28;20446;-68
2022/07/02 00:51:45;;;;;;;6.10;2.10;;;18.20;70.80;;;;;;5039941;28;20496;-68
2022/07/02 00:54:11;;;;;;;2.83;1.40;;;18.20;70.80;;;;;;5040299;28;20489;-68
2022/07/02 00:56:38;;;;;;;7.47;2.10;;;18.20;70.80;;;;;;5039861;28;20451;-68
2022/07/02 00:59:05;;;;;;;5.20;2.20;;;18.10;70.90;;;;;;5039971;28;20472;-68
2022/07/02 01:01:32;;;;;;;4.20;2.20;;;18.10;71.10;;;;;;5040137;28;20482;-68
2022/07/02 01:04:02;;;;;;;2.73;1.70;;;18.10;71.30;;;;;;5039190;28;20481;-68
2022/07/02 01:06:32;;;;;;;3.93;2.57;;;18.10;71.50;;;;;;5039058;28;20918;-68
2022/07/02 01:11:47;;;;;;;7.43;2.10;;;18.00;71.60;;;;;;5040171;28;20834;-68
2022/07/02 01:14:19;;;;;;;3.67;1.90;;;18.00;71.70;;;;;;5039864;28;21060;-68
2022/07/02 01:16:46;;;;;;;5.50;2.00;;;18.00;71.80;;;;;;5039859;28;20489;-68
2022/07/02 01:19:18;;;;;;;4.10;2.10;;;18.00;72.10;;;;;;5040341;28;20946;-68
2022/07/02 01:22:15;;;;;;;8.40;2.03;;;17.90;72.00;;;;;;5040368;28;20466;-68
2022/07/02 01:24:42;;;;;;;8.20;1.97;;;17.90;72.10;;;;;;5040259;28;20474;-68
2022/07/02 01:27:09;;;;;;;7.97;1.90;;;17.90;72.30;;;;;;5039779;28;20455;-68
2022/07/02 01:29:37;;;;;;;7.73;3.50;;;17.90;72.50;;;;;;5039980;28;20966;-68
2022/07/02 01:32:05;;;;;;;7.47;2.40;;;17.90;72.70;;;;;;5040846;28;20447;-68
2022/07/02 01:34:35;;;;;;;7.47;2.00;;;17.90;72.90;;;;;;5040852;28;20474;-68
2022/07/02 01:37:02;;;;;;;10.57;2.50;;;17.80;73.00;;;;;;5040415;28;20434;-68
2022/07/02 01:39:30;;;;;;;7.43;2.57;;;17.80;73.00;;;;;;5040029;28;20450;-68
2022/07/02 01:41:57;;;;;;;6.60;2.83;;;17.80;73.20;;;;;;5040119;28;20498;-68
2022/07/02 01:44:23;;;;;;;6.30;2.50;;;17.80;73.40;;;;;;5040921;28;20470;-67
2022/07/02 01:46:50;;;;;;;12.20;3.20;;;17.80;73.70;;;;;;5040611;28;20433;-67
2022/07/02 01:49:17;;;;;;;10.43;2.07;;;17.70;73.90;;;;;;5039654;28;20972;-68
2022/07/02 01:51:45;;;;;;;9.67;2.00;;;17.60;74.10;;;;;;5040302;28;20457;-68
2022/07/02 01:54:13;;;;;;;9.73;3.23;;;17.60;74.40;;;;;;5040838;28;20475;-68
2022/07/02 01:56:41;;;;;;;10.67;3.27;;;17.60;74.60;;;;;;5040202;28;20466;-68
2022/07/02 01:59:08;;;;;;;10.57;3.03;;;17.60;74.70;;;;;;5040303;28;20533;-68
2022/07/02 02:01:35;;;;;;;16.07;3.40;;;17.60;74.80;;;;;;5038043;28;20450;-72
2022/07/02 02:04:02;;;;;;;20.43;3.30;;;17.60;74.90;;;;;;5036512;28;20466;-74
2022/07/02 02:06:29;;;;;;;8.03;2.60;;;17.60;75.00;;;;;;5036363;28;20442;-74
2022/07/02 02:08:56;;;;;;;10.03;2.60;;;17.50;74.90;;;;;;5036245;28;20447;-73
2022/07/02 02:11:23;;;;;;;17.20;4.40;;;17.50;75.20;;;;;;5036110;28;20454;-73
2022/07/02 02:13:51;;;;;;;11.07;3.07;;;17.50;75.40;;;;;;5034780;28;20473;-73
2022/07/02 02:16:18;;;;;;;11.30;3.20;;;17.50;75.60;;;;;;5035055;28;20455;-73
2022/07/02 02:18:45;;;;;;;11.90;2.70;;;17.50;75.70;;;;;;5035991;28;20443;-73
2022/07/02 02:21:12;;;;;;;5.57;2.10;;;17.50;75.80;;;;;;5036087;28;20450;-73
2022/07/02 02:23:39;;;;;;;12.00;3.33;;;17.50;75.80;;;;;;5035892;28;20496;-74
2022/07/02 02:26:05;;;;;;;15.00;2.63;;;17.50;75.90;;;;;;5035965;28;20445;-74
2022/07/02 02:28:32;;;;;;;15.70;2.80;;;17.50;76.30;;;;;;5036134;28;20465;-73
2022/07/02 02:31:00;;;;;;;16.10;3.77;;;17.60;76.70;;;;;;5035571;28;20454;-73
2022/07/02 02:33:27;;;;;;;14.83;3.17;;;17.60;77.00;;;;;;5036273;28;20466;-73
2022/07/02 02:35:54;;;;;;;10.70;3.17;;;17.60;77.20;;;;;;5035600;28;20446;-73
2022/07/02 02:38:21;;;;;;;9.80;2.57;;;17.60;77.10;;;;;;5035301;28;20446;-73
2022/07/02 02:40:48;;;;;;;11.70;3.33;;;17.60;77.10;;;;;;5035463;28;20458;-73
2022/07/02 02:43:15;;;;;;;12.63;2.70;;;17.60;77.20;;;;;;5035381;28;20495;-73
2022/07/02 02:45:41;;;;;;;6.80;1.97;;;17.60;77.30;;;;;;5035652;28;20454;-73
2022/07/02 02:48:09;;;;;;;16.43;2.90;;;17.60;77.40;;;;;;5035136;28;20462;-73
2022/07/02 02:50:36;;;;;;;11.67;2.57;;;17.50;77.30;;;;;;5035154;28;20443;-73
2022/07/02 02:53:03;;;;;;;13.33;2.17;;;17.50;77.30;;;;;;5035050;28;20458;-73
2022/07/02 02:55:31;;;;;;;9.17;2.17;;;17.40;77.20;;;;;;5034891;28;20826;-73
2022/07/02 02:57:58;;;;;;;4.60;1.70;;;17.30;76.90;;;;;;5036027;28;20458;-72
2022/07/02 03:00:25;;;;;;;5.53;2.33;;;17.20;76.80;;;;;;5035029;28;20454;-72
2022/07/02 03:02:52;;;;;;;11.73;2.80;;;17.20;76.80;;;;;;5034902;28;20513;-73
2022/07/02 03:05:20;;;;;;;5.47;2.00;;;17.10;76.80;;;;;;5035141;28;20469;-73
2022/07/02 03:07:47;;;;;;;6.40;2.00;;;17.10;76.90;;;;;;5036025;28;20454;-74
2022/07/02 03:10:13;;;;;;;6.80;2.40;;;17.10;76.90;;;;;;5035382;28;20454;-73
2022/07/02 03:12:40;;;;;;;13.73;2.40;;;17.00;76.90;;;;;;5035257;28;20449;-74
2022/07/02 03:15:08;;;;;;;10.40;2.63;;;17.00;76.90;;;;;;5035355;28;20478;-73
2022/07/02 03:17:35;;;;;;;9.57;2.53;;;17.00;76.90;;;;;;5034916;28;20450;-74
2022/07/02 03:20:02;;;;;;;13.47;3.20;;;17.00;76.90;;;;;;5034875;28;20455;-73
2022/07/02 03:22:30;;;;;;;14.40;3.23;;;17.00;76.90;;;;;;5034849;28;20490;-73
2022/07/02 03:24:57;;;;;;;7.67;2.33;;;17.00;77.10;;;;;;5035043;28;20557;-73
2022/07/02 03:27:24;;;;;;;5.73;2.40;;;17.00;77.30;;;;;;5035069;28;20456;-73
2022/07/02 03:29:51;;;;;;;5.80;1.90;;;16.90;77.30;;;;;;5034814;28;20500;-73
2022/07/02 03:32:18;;;;;;;6.73;2.63;;;16.90;77.40;;;;;;5034904;28;20447;-73
2022/07/02 03:34:45;;;;;;;7.57;2.93;;;16.90;77.40;;;;;;5034375;28;20475;-73
2022/07/02 03:37:12;;;;;;;5.50;2.90;;;16.90;77.50;;;;;;5035217;28;20454;-73
2022/07/02 03:39:41;;;;;;;5.47;2.03;;;16.90;77.70;;;;;;5035147;28;20450;-73
2022/07/02 03:42:09;;;;;;;9.13;2.17;;;16.80;77.90;;;;;;5034891;28;20462;-73
2022/07/02 03:44:36;;;;;;;5.17;1.80;;;16.80;78.00;;;;;;5034802;28;21024;-73
2022/07/02 03:47:03;;;;;;;9.63;2.43;;;16.80;78.40;;;;;;5034736;28;20949;-73
2022/07/02 03:49:30;;;;;;;11.47;2.63;;;16.70;78.60;;;;;;5035218;28;20465;-73
2022/07/02 03:51:57;;;;;;;5.13;2.53;;;16.70;78.90;;;;;;5038706;28;20438;-73
2022/07/02 03:54:24;;;;;;;6.27;1.80;;;16.70;79.00;;;;;;5038686;28;20462;-73
2022/07/02 03:56:52;;;;;;;7.13;1.90;;;16.70;79.10;;;;;;5038658;28;20834;-73
2022/07/02 03:59:19;;;;;;;2.80;1.83;;;16.80;79.30;;;;;;5038699;28;20455;-73
2022/07/02 04:01:46;;;;;;;4.70;1.73;;;16.80;79.40;;;;;;5038841;28;20456;-73
2022/07/02 04:04:13;;;;;;;2.00;1.80;;;16.80;79.50;;;;;;5038187;28;21037;-73
2022/07/02 04:06:40;;;;;;;2.87;1.60;;;16.80;79.90;;;;;;5037804;28;20972;-73
2022/07/02 04:09:06;;;;;;;4.03;1.47;;;16.80;80.40;;;;;;5038655;28;20438;-73
2022/07/02 04:11:33;;;;;;;4.40;1.70;;;16.90;80.80;;;;;;5038303;28;20451;-73
2022/07/02 04:14:01;;;;;;;2.40;1.37;;;16.90;81.10;;;;;;5038600;28;20458;-73
2022/07/02 04:16:28;;;;;;;6.37;1.80;;;17.00;81.70;;;;;;5038533;28;20461;-73
2022/07/02 04:18:54;;;;;;;4.37;1.83;;;17.00;82.10;;;;;;5038079;28;20446;-73
2022/07/02 04:21:21;;;;;;;3.63;1.90;;;17.10;81.50;;;;;;5037938;28;20814;-73
2022/07/02 04:23:48;;;;;;;8.07;2.07;;;17.10;81.50;;;;;;5038296;28;20494;-73
2022/07/02 04:26:15;;;;;;;5.23;1.90;;;17.10;81.20;;;;;;5038043;28;20813;-73
2022/07/02 04:28:42;;;;;;;3.20;1.90;;;17.00;81.30;;;;;;5038149;28;20449;-73
2022/07/02 04:31:10;;;;;;;5.53;1.63;;;17.00;82.20;;;;;;5038543;28;20457;-73
2022/07/02 04:33:37;;;;;;;4.70;2.30;;;17.00;82.30;;;;;;5037980;28;20471;-73
2022/07/02 04:36:04;;;;;;;4.83;2.10;;;17.10;82.60;;;;;;5037879;28;20461;-73
2022/07/02 04:38:31;;;;;;;5.63;2.50;;;17.10;81.60;;;;;;5037406;28;20450;-73
2022/07/02 04:40:57;;;;;;;5.10;1.97;;;17.10;82.30;;;;;;5037291;28;20466;-72
2022/07/02 04:43:24;;;;;;;10.00;2.67;;;17.10;81.80;;;;;;5037664;28;20497;-72
2022/07/02 04:45:51;;;;;;;7.13;2.10;;;17.00;82.40;;;;;;5037710;28;20442;-72
2022/07/02 04:48:19;;;;;;;8.50;1.93;;;17.00;82.70;;;;;;5037881;28;20817;-73
2022/07/02 04:50:46;;;;;;;2.90;1.60;;;17.00;83.30;;;;;;5037779;28;20442;-73
2022/07/02 04:53:13;;;;;;;5.13;1.73;;;17.00;83.20;;;;;;5038944;28;20458;-67
2022/07/02 04:55:40;;;;;;;12.60;2.00;;;17.10;83.60;;;;;;5042339;28;20454;-67
2022/07/02 04:58:06;;;;;;;7.63;1.83;;;17.10;83.30;;;;;;5041688;28;20454;-67
2022/07/02 05:00:33;;;;;;;3.73;1.90;;;17.00;83.60;;;;;;5041326;28;20458;-67
2022/07/02 05:03:00;;;;;;;5.83;2.23;;;17.10;83.50;;;;;;5041692;28;20486;-67
2022/07/02 05:05:28;;;;;;;6.53;2.20;;;17.10;83.80;;;;;;5041234;28;20470;-68
2022/07/02 05:07:55;;;;;;;3.77;1.93;;;17.10;83.90;;;;;;5041323;28;20449;-67
2022/07/02 05:10:23;;;;;;;7.00;1.70;;;17.10;83.80;;;;;;5040953;28;20451;-67
2022/07/02 05:12:50;;;;;;;10.77;2.07;;;17.10;84.50;;;;;;5039932;28;20457;-67
2022/07/02 05:15:17;;;;;;;10.03;2.27;;;17.20;85.10;;;;;;5042022;28;20476;-67
2022/07/02 05:17:43;;;;;;;9.60;2.73;;;17.30;85.90;;;;;;5040705;28;20454;-67
2022/07/02 05:20:11;;;;;;;10.50;2.67;;;17.40;86.00;;;;;;5041235;28;20910;-67
2022/07/02 05:22:39;;;;;;;3.37;2.37;;;17.40;84.70;;;;;;5041440;28;20446;-67
2022/07/02 05:25:06;;;;;;;7.93;1.83;;;17.50;84.90;;;;;;5038270;28;20462;-68
2022/07/02 05:27:33;;;;;;;6.60;2.13;;;17.50;84.50;;;;;;5038795;28;20446;-68
2022/07/02 05:30:00;;;;;;;9.70;2.40;;;17.50;83.40;;;;;;5040635;28;20505;-68
2022/07/02 05:32:28;;;;;;;6.73;2.13;;;17.50;82.60;;;;;;5040495;28;20962;-68
2022/07/02 05:34:54;;;;;;;4.50;1.23;;;17.50;82.90;;;;;;5040042;28;20855;-68
2022/07/02 05:37:21;;;;;;;4.67;2.17;;;17.50;82.80;;;;;;5039845;28;20973;-68
2022/07/02 05:39:49;;;;;;;2.80;1.80;;;17.60;83.40;;;;;;5039412;28;20454;-68
2022/07/02 05:42:16;;;;;;;3.80;1.63;;;17.60;83.00;;;;;;5039415;28;20437;-68
2022/07/02 05:44:43;;;;;;;3.33;1.97;;;17.70;81.70;;;;;;5039865;28;20496;-68
2022/07/02 05:47:10;;;;;;;6.33;1.77;;;17.80;81.90;;;;;;5039980;28;20453;-68
2022/07/02 05:49:36;;;;;;;4.30;1.20;;;17.80;82.50;;;;;;5041079;28;20450;-68
2022/07/02 05:52:04;;;;;;;5.87;1.83;;;18.00;82.00;;;;;;5040773;28;20453;-68
2022/07/02 05:54:30;;;;;;;4.47;1.80;;;18.00;82.20;;;;;;5041037;28;20541;-68
2022/07/02 05:56:59;;;;;;;7.93;1.90;;;18.10;82.70;;;;;;5040635;28;20457;-68
2022/07/02 05:59:25;;;;;;;5.03;1.70;;;18.20;81.40;;;;;;5038009;28;20442;-68
2022/07/02 06:01:52;;;;;;;4.67;1.10;;;18.30;81.10;;;;;;5035627;28;20823;-67
2022/07/02 06:04:19;;;;;;;6.10;1.80;;;18.40;80.50;;;;;;5038152;28;20493;-67
2022/07/02 06:09:30;;;;;;;2.90;1.47;;;18.60;79.60;;;;;;5039905;28;20479;-68
2022/07/02 06:11:57;;;;;;;4.03;1.00;;;18.70;79.10;;;;;;5039157;28;20446;-68
2022/07/02 06:14:25;;;;;;;4.97;1.20;;;18.90;78.30;;;;;;5039023;28;20550;-68
2022/07/02 06:16:51;;;;;;;9.63;1.47;;;19.00;78.00;;;;;;5039608;28;20451;-68
2022/07/02 06:19:18;;;;;;;3.20;1.27;;;19.10;77.50;;;;;;5039529;28;20455;-68
2022/07/02 06:21:45;;;;;;;4.80;1.37;;;19.20;77.00;;;;;;5039950;28;20470;-68
2022/07/02 06:24:12;;;;;;;2.10;1.17;;;19.30;76.80;;;;;;5039340;28;21032;-68
2022/07/02 06:26:39;;;;;;;4.67;1.50;;;19.50;77.30;;;;;;5039292;28;20442;-68
2022/07/02 06:29:06;;;;;;;4.27;1.63;;;19.60;77.00;;;;;;5038780;28;20454;-68
2022/07/02 06:31:34;;;;;;;5.07;1.30;;;19.80;77.00;;;;;;5038747;28;20446;-68
2022/07/02 06:34:01;;;;;;;2.90;1.20;;;19.90;74.20;;;;;;5038502;28;20477;-68
2022/07/02 06:36:28;;;;;;;1.77;1.07;;;20.10;71.90;;;;;;5038414;28;20457;-68
2022/07/02 06:38:55;;;;;;;2.17;1.03;;;20.20;70.20;;;;;;5038106;28;20461;-68
2022/07/02 06:44:07;;;;;;;2.30;0.97;;;20.30;67.80;;;;;;5037409;28;20476;-67
2022/07/02 06:46:35;;;;;;;4.80;1.10;;;20.50;65.00;;;;;;5037376;28;20997;-67
2022/07/02 06:49:02;;;;;;;3.20;1.50;;;20.50;65.00;;;;;;5037717;28;20835;-68
2022/07/02 06:51:29;;;;;;;3.73;1.53;;;20.70;65.40;;;;;;5037954;28;20446;-68
2022/07/02 06:54:00;;;;;;;1.57;0.90;;;20.80;64.60;;;;;;5038519;28;20470;-68
2022/07/02 06:56:28;;;;;;;1.47;0.77;;;21.00;63.00;;;;;;5037589;28;20443;-68
2022/07/02 06:58:55;;;;;;;5.53;1.10;;;21.20;62.50;;;;;;5037489;28;20462;-68
2022/07/02 07:01:22;;;;;;;1.90;0.93;;;21.40;62.60;;;;;;5038041;28;20435;-68
2022/07/02 07:03:50;;;;;;;3.60;1.00;;;21.60;62.90;;;;;;5038135;28;21013;-68
2022/07/02 07:06:17;;;;;;;3.97;1.30;;;21.90;62.40;;;;;;5037836;28;20439;-68
2022/07/02 07:08:44;;;;;;;3.17;1.23;;;22.10;60.70;;;;;;5037473;28;20446;-68
2022/07/02 07:11:10;;;;;;;3.73;1.23;;;22.30;59.90;;;;;;5037124;28;20446;-68
2022/07/02 07:13:38;;;;;;;2.23;1.10;;;22.60;60.10;;;;;;5037358;28;20474;-68
2022/07/02 07:16:05;;;;;;;3.13;1.17;;;22.80;59.20;;;;;;5037501;28;20489;-68
2022/07/02 07:18:32;;;;;;;2.90;1.50;;;22.90;59.10;;;;;;5037419;28;20441;-68
2022/07/02 07:21:01;;;;;;;3.67;1.57;;;23.10;58.60;;;;;;5038217;28;20453;-68
2022/07/02 07:23:27;;;;;;;2.13;1.23;;;23.30;57.70;;;;;;5037587;28;20470;-68
2022/07/02 07:25:54;;;;;;;5.60;1.53;;;23.50;57.60;;;;;;5040605;28;20522;-68
2022/07/02 07:28:24;;;;;;;2.30;1.10;;;23.70;57.60;;;;;;5041346;28;20915;-68
2022/07/02 07:30:50;;;;;;;6.10;1.23;;;23.90;57.60;;;;;;5041388;28;20465;-68
2022/07/02 07:33:17;;;;;;;3.00;1.77;;;24.10;56.60;;;;;;5042385;28;20454;-68
2022/07/02 07:35:44;;;;;;;2.67;0.90;;;24.30;55.80;;;;;;5042670;28;20825;-68
2022/07/02 07:38:12;;;;;;;4.20;1.07;;;24.50;51.90;;;;;;5043206;28;20549;-68
2022/07/02 07:40:39;;;;;;;0.70;0.50;;;24.70;50.10;;;;;;5043887;28;20474;-68
2022/07/02 07:43:06;;;;;;;1.83;0.67;;;24.80;51.00;;;;;;5043964;28;20450;-68
2022/07/02 07:45:34;;;;;;;2.80;0.90;;;25.00;48.70;;;;;;5043554;28;21009;-68
2022/07/02 07:48:01;;;;;;;0.73;0.53;;;25.10;45.90;;;;;;5043435;28;20446;-68
2022/07/02 07:50:27;;;;;;;4.43;0.80;;;25.20;45.80;;;;;;5043362;28;20437;-68
2022/07/02 07:52:54;;;;;;;1.60;0.90;;;25.40;46.30;;;;;;5042716;28;20457;-68
2022/07/02 07:55:22;;;;;;;1.40;0.83;;;25.60;47.40;;;;;;5040267;28;20462;-68
2022/07/02 07:57:49;;;;;;;3.37;0.90;;;25.70;47.80;;;;;;5040324;28;20825;-68
2022/07/02 08:00:17;;;;;;;1.70;0.60;;;26.00;48.00;;;;;;5040707;28;20458;-68
2022/07/02 08:02:43;;;;;;;2.47;1.13;;;26.20;46.00;;;;;;5040169;28;20453;-68
2022/07/02 08:05:10;;;;;;;2.20;0.70;;;26.30;44.30;;;;;;5039865;28;20490;-68
2022/07/02 08:07:38;;;;;;;1.20;0.80;;;26.50;45.20;;;;;;5023044;28;20446;-68
2022/07/02 08:10:06;;;;;;;4.10;0.90;;;26.70;46.20;;;;;;5039852;28;20466;-68
2022/07/02 08:12:34;;;;;;;3.67;0.83;;;26.80;43.40;;;;;;5040013;28;20453;-68
2022/07/02 08:15:01;;;;;;;2.53;1.00;;;26.90;42.10;;;;;;5039595;28;20850;-69
2022/07/02 08:17:29;;;;;;;2.00;0.70;;;27.10;41.40;;;;;;5039446;28;20461;-69
2022/07/02 08:19:56;;;;;;;1.80;0.60;;;27.20;40.60;;;;;;5039364;28;20471;-68
2022/07/02 08:22:23;;;;;;;5.43;0.80;;;27.30;40.00;;;;;;5039687;28;20526;-68
2022/07/02 08:24:50;;;;;;;1.53;1.13;;;27.30;39.30;;;;;;5039301;28;20553;-68
2022/07/02 08:27:16;;;;;;;4.20;0.60;;;27.50;40.00;;;;;;5039096;28;20450;-68
2022/07/02 08:29:45;;;;;;;1.60;0.80;;;27.60;38.40;;;;;;5039250;28;20490;-68
2022/07/02 08:32:14;;;;;;;3.63;0.83;;;27.80;36.70;;;;;;5039184;28;20460;-68
2022/07/02 08:34:41;;;;;;;3.10;0.87;;;27.80;37.20;;;;;;5040055;28;20520;-69
2022/07/02 08:37:08;;;;;;;1.10;0.70;;;27.70;36.50;;;;;;5038762;28;20466;-69
2022/07/02 08:39:35;;;;;;;1.17;0.43;;;27.70;34.90;;;;;;5038687;28;20914;-68
2022/07/02 08:42:02;;;;;;;2.10;0.50;;;27.70;34.70;;;;;;5038608;28;20454;-68
2022/07/02 08:44:32;;;;;;;1.33;0.50;;;27.80;35.70;;;;;;5039411;28;20493;-68
2022/07/02 08:47:00;;;;;;;2.23;0.70;;;28.00;34.80;;;;;;5039021;28;20435;-69
2022/07/02 08:49:28;;;;;;;1.90;0.63;;;28.30;36.40;;;;;;5038653;28;20446;-69
2022/07/02 08:52:01;;;;;;;4.53;0.80;;;28.50;34.40;;;;;;5039242;28;20460;-69
2022/07/02 08:54:28;;;;;;;0.40;0.40;;;28.50;31.60;;;;;;5039189;28;20970;-69
2022/07/02 08:56:56;;;;;;;1.80;0.73;;;28.50;32.50;;;;;;5038958;28;20445;-68
2022/07/02 08:59:22;;;;;;;1.73;0.70;;;28.60;33.20;;;;;;5038951;28;20480;-69
2022/07/02 09:01:49;;;;;;;0.97;0.50;;;28.80;34.20;;;;;;5038827;28;20435;-68
2022/07/02 09:04:19;;;;;;;1.67;0.80;;;29.10;34.70;;;;;;5038467;28;20493;-69
2022/07/02 09:06:47;;;;;;;2.17;0.67;;;29.40;34.60;;;;;;5039921;28;20438;-69
2022/07/02 09:09:14;;;;;;;2.63;0.70;;;29.50;32.30;;;;;;5037759;28;20451;-69
2022/07/02 09:11:41;;;;;;;2.40;0.83;;;29.70;31.30;;;;;;5037863;28;20451;-68
2022/07/02 09:14:09;;;;;;;1.80;0.80;;;29.70;31.50;;;;;;5038062;28;20494;-69
2022/07/02 09:16:37;;;;;;;3.23;0.90;;;29.80;32.20;;;;;;5038590;28;20531;-68
2022/07/02 09:19:04;;;;;;;1.73;1.00;;;29.70;31.60;;;;;;5037854;28;20512;-69
2022/07/02 09:21:42;;;;;;;1.23;0.73;;;29.50;30.80;;;;;;5038853;28;20460;-69
2022/07/02 09:24:09;;;;;;;4.93;0.80;;;29.50;31.90;;;;;;5037790;28;20470;-68
2022/07/02 09:26:36;;;;;;;1.13;0.67;;;29.60;32.20;;;;;;5038373;28;20453;-68
2022/07/02 09:29:04;;;;;;;3.50;0.90;;;29.90;32.40;;;;;;5038391;28;20435;-68
2022/07/02 09:31:32;;;;;;;1.07;0.60;;;30.10;31.20;;;;;;5038322;28;20455;-68
2022/07/02 09:33:59;;;;;;;1.60;0.80;;;30.20;30.90;;;;;;5037736;28;20462;-68
2022/07/02 09:36:27;;;;;;;1.53;0.70;;;30.20;30.50;;;;;;5038075;28;20453;-69
2022/07/02 09:38:55;;;;;;;2.07;0.90;;;30.00;30.50;;;;;;5038135;28;21064;-68
2022/07/02 09:41:23;;;;;;;3.40;1.00;;;30.20;31.30;;;;;;5038448;28;20869;-68
2022/07/02 09:43:58;;;;;;;1.40;0.60;;;30.60;32.80;;;;;;5037823;28;20509;-68
2022/07/02 09:46:25;;;;;;;4.13;0.83;;;31.00;31.50;;;;;;5035613;28;20447;-68
2022/07/02 09:48:52;;;;;;;0.77;0.57;;;31.40;29.10;;;;;;5035778;28;20457;-69
2022/07/02 09:51:19;;;;;;;1.30;0.50;;;31.70;28.50;;;;;;5037365;28;20461;-69
2022/07/02 09:53:50;;;;;;;3.80;0.97;;;32.30;28.60;;;;;;5037371;28;20809;-68
2022/07/02 09:56:19;;;;;;;0.90;0.60;;;32.90;27.80;;;;;;5037484;28;20968;-68
2022/07/02 09:58:45;;;;;;;1.70;0.60;;;33.40;27.70;;;;;;5037021;28;20458;-69
2022/07/02 10:01:12;;;;;;;3.47;0.50;;;34.10;27.80;;;;;;5037112;28;20445;-69
2022/07/02 10:03:51;;;;;;;1.40;0.90;;;34.60;25.20;;;;;;5037159;28;20466;-69
2022/07/02 10:06:18;;;;;;;3.47;0.63;;;35.10;25.20;;;;;;5036669;28;20477;-69
2022/07/02 10:08:45;;;;;;;3.07;1.00;;;35.30;25.50;;;;;;5036579;28;20453;-69
2022/07/02 10:11:14;;;;;;;2.57;1.00;;;35.40;25.20;;;;;;5036866;28;20449;-68
2022/07/02 10:13:43;;;;;;;3.10;0.90;;;35.50;23.80;;;;;;5036197;28;20849;-68
2022/07/02 10:16:14;;;;;;;1.57;0.50;;;35.80;24.00;;;;;;5036138;28;20521;-69
2022/07/02 10:18:42;;;;;;;2.50;1.10;;;36.20;23.30;;;;;;5036465;28;20438;-69
2022/07/02 10:21:12;;;;;;;5.00;0.90;;;36.20;22.30;;;;;;5036816;28;20503;-69
2022/07/02 10:23:39;;;;;;;1.10;0.53;;;35.80;21.80;;;;;;5036439;28;20476;-69
2022/07/02 10:26:06;;;;;;;1.07;0.80;;;35.20;22.80;;;;;;5036246;28;20489;-69
2022/07/02 10:28:34;;;;;;;4.57;0.90;;;34.90;23.40;;;;;;5019055;28;20456;-69
2022/07/02 10:31:02;;;;;;;2.27;0.70;;;34.70;22.70;;;;;;5036785;28;20457;-69
2022/07/02 10:33:34;;;;;;;2.97;0.60;;;34.40;23.20;;;;;;5036644;28;20474;-69
2022/07/02 10:36:03;;;;;;;4.00;0.97;;;34.20;23.80;;;;;;5036970;28;20434;-68
2022/07/02 10:38:33;;;;;;;3.00;0.77;;;34.10;26.00;;;;;;5036903;28;20466;-68
2022/07/02 10:41:01;;;;;;;1.53;0.63;;;34.10;25.60;;;;;;5036127;28;20476;-68
2022/07/02 10:43:29;;;;;;;3.23;0.80;;;34.40;26.40;;;;;;5036352;28;20477;-69
2022/07/02 10:46:04;;;;;;;2.73;0.90;;;34.90;25.80;;;;;;5036283;28;21051;-69
2022/07/02 10:48:33;;;;;;;1.93;0.70;;;35.50;22.90;;;;;;5036969;28;20540;-69
2022/07/02 10:51:00;;;;;;;3.00;0.90;;;36.30;22.90;;;;;;5036620;28;20457;-69
2022/07/02 10:53:29;;;;;;;1.87;0.70;;;37.00;22.90;;;;;;5036978;28;20470;-68
2022/07/02 10:56:02;;;;;;;1.57;0.70;;;37.90;22.70;;;;;;5037025;28;20190;-68
2022/07/02 10:58:31;;;;;;;1.80;0.77;;;38.70;19.60;;;;;;5036777;28;20203;-69
2022/07/02 11:01:10;;;;;;;0.85;0.75;;;39.30;19.00;;;;;;5036812;28;20649;-69
2022/07/02 11:03:37;;;;;;;1.83;0.68;;;39.80;19.30;;;;;;5036784;28;20223;-69
2022/07/02 11:06:05;;;;;;;2.78;0.88;;;40.10;19.20;;;;;;5037845;28;20227;-69
2022/07/02 11:08:54;;;;;;;2.55;0.52;;;40.40;18.30;;;;;;5037790;28;20207;-69
2022/07/02 11:11:30;;;;;;;4.20;0.70;;;41.00;17.30;;;;;;5036928;28;20561;-69
2022/07/02 11:14:01;;;;;;;2.00;0.73;;;41.20;16.80;;;;;;5037252;28;20311;-69
2022/07/02 11:16:34;;;;;;;1.75;0.60;;;41.10;16.50;;;;;;5036716;28;20221;-69
2022/07/02 11:19:01;;;;;;;1.20;0.40;;;40.90;17.20;;;;;;5035979;28;20647;-69
2022/07/02 11:21:28;;;;;;;1.83;0.77;;;41.00;17.50;;;;;;5035702;28;20219;-70
2022/07/02 11:23:56;;;;;;;0.82;0.40;;;41.30;18.40;;;;;;5036328;28;20223;-70
2022/07/02 11:26:25;;;;;;;1.40;0.80;;;41.90;17.90;;;;;;5036096;28;20219;-70
2022/07/02 11:28:53;;;;;;;1.73;0.50;;;42.30;17.00;;;;;;5036023;28;20211;-70
2022/07/02 11:31:22;;;;;;;2.03;0.60;;;42.30;15.80;;;;;;5036050;28;20192;-70
2022/07/02 11:33:52;;;;;;;3.42;0.60;;;42.50;15.00;;;;;;5036533;28;20277;-70
2022/07/02 11:36:19;;;;;;;1.13;0.50;;;43.00;15.60;;;;;;5035554;28;20199;-70
2022/07/02 11:38:48;;;;;;;1.15;0.55;;;43.00;15.40;;;;;;5035697;28;20211;-69
2022/07/02 11:41:20;;;;;;;1.95;0.40;;;42.80;15.10;;;;;;5035836;28;20207;-69
2022/07/02 11:43:47;;;;;;;1.70;0.70;;;43.10;16.70;;;;;;5036085;28;20742;-69
2022/07/02 11:46:15;;;;;;;4.45;0.75;;;43.80;16.40;;;;;;5035960;28;20732;-69
2022/07/02 11:48:41;;;;;;;2.53;0.40;;;43.90;14.70;;;;;;5036339;28;20203;-69
2022/07/02 11:51:10;;;;;;;4.80;0.70;;;43.90;15.00;;;;;;5035178;28;20583;-69
2022/07/02 11:53:37;;;;;;;1.65;0.50;;;44.20;13.90;;;;;;5036049;28;20254;-70
2022/07/02 11:56:08;;;;;;;2.10;0.63;;;44.50;13.80;;;;;;5034791;28;20210;-69
2022/07/02 11:58:40;;;;;;;1.30;0.60;;;44.40;13.50;;;;;;5034979;28;20199;-69
2022/07/02 12:01:22;;;;;;;2.42;0.55;;;43.80;14.40;;;;;;5035373;28;20203;-69
2022/07/02 12:03:49;;;;;;;1.20;0.47;;;43.20;16.50;;;;;;5035801;28;20223;-69
2022/07/02 12:06:18;;;;;;;1.88;0.55;;;43.20;15.10;;;;;;5036065;28;20219;-69
2022/07/02 12:08:45;;;;;;;0.80;0.50;;;43.70;15.90;;;;;;5036044;28;20295;-69
2022/07/02 12:11:16;;;;;;;1.27;0.50;;;44.20;14.80;;;;;;5036783;28;20214;-69
2022/07/02 12:13:43;;;;;;;11.60;1.13;;;44.50;15.00;;;;;;5040195;28;20223;-69
2022/07/02 12:16:11;;;;;;;3.95;0.98;;;44.80;15.70;;;;;;5039628;28;20671;-69
2022/07/02 12:18:38;;;;;;;1.85;0.90;;;45.10;15.70;;;;;;5039348;28;20682;-69
2022/07/02 12:21:12;;;;;;;1.70;0.60;;;45.60;16.30;;;;;;5038797;28;20207;-70
2022/07/02 12:23:46;;;;;;;1.38;0.50;;;45.80;13.30;;;;;;5038204;28;20248;-69
2022/07/02 12:26:20;;;;;;;2.35;0.40;;;45.60;13.90;;;;;;5038536;28;20710;-69
2022/07/02 12:31:45;;;;;;;4.90;0.70;;;45.80;12.90;;;;;;5038152;28;20191;-70
2022/07/02 12:34:12;;;;;;;2.53;0.50;;;46.20;13.30;;;;;;5038673;28;20226;-70
2022/07/02 12:36:53;;;;;;;1.00;0.57;;;46.40;12.70;;;;;;5038705;28;20195;-70
2022/07/02 12:39:23;;;;;;;2.17;0.73;;;46.00;13.10;;;;;;5038411;28;20203;-70
2022/07/02 12:41:50;;;;;;;3.33;0.63;;;45.60;14.70;;;;;;5037978;28;20215;-70
2022/07/02 12:44:21;;;;;;;2.03;0.73;;;45.10;13.70;;;;;;5038831;28;20227;-69
2022/07/02 12:46:50;;;;;;;2.15;0.50;;;44.50;14.20;;;;;;5038874;28;20701;-69
2022/07/02 12:49:18;;;;;;;3.55;0.88;;;44.00;15.90;;;;;;5037478;28;20199;-69
2022/07/02 12:52:06;;;;;;;1.98;0.65;;;43.90;15.60;;;;;;5038990;28;20251;-69
2022/07/02 12:54:38;;;;;;;1.25;0.47;;;44.20;14.50;;;;;;5034235;28;20223;-69
2022/07/02 12:57:15;;;;;;;1.08;0.60;;;44.80;14.40;;;;;;5039109;28;20227;-69
2022/07/02 12:59:42;;;;;;;3.35;0.70;;;45.60;14.60;;;;;;5039005;28;20566;-70
2022/07/02 13:02:13;;;;;;;1.02;0.43;;;46.20;12.80;;;;;;5038776;28;20585;-70